Página principal
METAR-TAF:

METAR-TAF

Aeroportos :

Aeroporto Internacional de Bagdad

Bagdá, Iraque

latitude: 33-15-45N, longitude: 44-14-04E, altura: 35 m

Observação actual do tempo

O boletim foi feito há 29 minutos, às 15:00 UTC
Vento 3 kt de oeste
Temperatura 18°C
Humidade 83%
Pressão 1013 hPa
Visibilidade: 5000 m
Nuvens fragmentadasa uma altura de 3000 ft
neblina

METAR: ORBI 151500Z 27003KT 5000 BR BKN030 18/15 Q1013 NOSIG

Hora: 18:29 (15:29 UTC)

Previsão

O boletim foi feito há 4 horas e 29 minutos, às 11:00 UTC
Previsão válida de 15 às 12 UTC a 16 às 12 UTC
Vento 8 kt de es-sudeste
Visibilidade: 2500 m
Encobertoa uma altura de 3000 ft
neblina
Temporariamente
de 15 às 12 UTC a 15 às 24 UTC

TAF: ORBI 151100Z 1512/1612 12008KT 2500 BR OVC030 TEMPO 1512/1524

Observações e previsões do tempo de mais de 4000 aeroportos (mensagens METAR e TAF).

As estações disponíveis são os pontos amarelos e vermelhos sobre o mapa.

Mova o rato sobre o mapa para ver o nome da estação.

Depois clique no ponto para visualizar as observações e previsões meteorológicas.

Para alterar o mapa : clique nos botões verdes com uma cruz preta para aumentar o zoom; no botão verde com uma pitada de zoom; ou nas setas verdes para mapas adjacentes.


METAR-TAF: